sensor_id;sensor_type;location;lat;lon;timestamp;P1;durP1;ratioP1;P2;durP2;ratioP2
20000;SDS011;10161;41.188;-8.642;2023-05-21T00:01:07;5.97;;;5.20;;
20000;SDS011;10161;41.188;-8.642;2023-05-21T00:03:36;7.60;;;5.40;;
20000;SDS011;10161;41.188;-8.642;2023-05-21T00:06:05;6.37;;;5.03;;
20000;SDS011;10161;41.188;-8.642;2023-05-21T00:08:32;7.07;;;4.80;;
20000;SDS011;10161;41.188;-8.642;2023-05-21T00:10:59;5.67;;;4.23;;
20000;SDS011;10161;41.188;-8.642;2023-05-21T00:13:28;6.23;;;4.50;;
20000;SDS011;10161;41.188;-8.642;2023-05-21T00:15:55;5.70;;;5.10;;
20000;SDS011;10161;41.188;-8.642;2023-05-21T00:18:22;6.47;;;4.47;;
20000;SDS011;10161;41.188;-8.642;2023-05-21T00:20:50;6.87;;;5.03;;
20000;SDS011;10161;41.188;-8.642;2023-05-21T00:23:18;5.67;;;4.80;;
20000;SDS011;10161;41.188;-8.642;2023-05-21T00:25:45;6.13;;;4.83;;
20000;SDS011;10161;41.188;-8.642;2023-05-21T00:28:14;7.93;;;5.70;;
20000;SDS011;10161;41.188;-8.642;2023-05-21T00:30:41;8.57;;;5.30;;
20000;SDS011;10161;41.188;-8.642;2023-05-21T00:33:08;8.07;;;5.03;;
20000;SDS011;10161;41.188;-8.642;2023-05-21T00:35:38;6.33;;;4.77;;
20000;SDS011;10161;41.188;-8.642;2023-05-21T00:38:06;7.03;;;4.97;;
20000;SDS011;10161;41.188;-8.642;2023-05-21T00:40:34;5.03;;;4.43;;
20000;SDS011;10161;41.188;-8.642;2023-05-21T00:43:01;7.33;;;5.10;;
20000;SDS011;10161;41.188;-8.642;2023-05-21T00:45:28;5.17;;;4.30;;
20000;SDS011;10161;41.188;-8.642;2023-05-21T00:47:56;5.23;;;4.40;;
20000;SDS011;10161;41.188;-8.642;2023-05-21T00:50:23;6.47;;;4.80;;
20000;SDS011;10161;41.188;-8.642;2023-05-21T00:52:50;4.77;;;4.30;;
20000;SDS011;10161;41.188;-8.642;2023-05-21T00:55:20;5.07;;;4.57;;
20000;SDS011;10161;41.188;-8.642;2023-05-21T00:57:47;5.83;;;4.53;;
20000;SDS011;10161;41.188;-8.642;2023-05-21T01:00:14;5.10;;;4.23;;
20000;SDS011;10161;41.188;-8.642;2023-05-21T01:02:42;5.43;;;4.60;;
20000;SDS011;10161;41.188;-8.642;2023-05-21T01:05:09;6.20;;;5.43;;
20000;SDS011;10161;41.188;-8.642;2023-05-21T01:07:37;5.17;;;4.43;;
20000;SDS011;10161;41.188;-8.642;2023-05-21T01:10:06;5.20;;;4.00;;
20000;SDS011;10161;41.188;-8.642;2023-05-21T01:12:37;6.47;;;4.80;;
20000;SDS011;10161;41.188;-8.642;2023-05-21T01:15:05;5.20;;;4.63;;
20000;SDS011;10161;41.188;-8.642;2023-05-21T01:17:33;5.07;;;4.17;;
20000;SDS011;10161;41.188;-8.642;2023-05-21T01:20:01;4.40;;;4.00;;
20000;SDS011;10161;41.188;-8.642;2023-05-21T01:22:35;5.23;;;4.73;;
20000;SDS011;10161;41.188;-8.642;2023-05-21T01:25:07;6.60;;;4.23;;
20000;SDS011;10161;41.188;-8.642;2023-05-21T01:27:34;4.27;;;3.87;;
20000;SDS011;10161;41.188;-8.642;2023-05-21T01:30:01;4.47;;;3.73;;
20000;SDS011;10161;41.188;-8.642;2023-05-21T01:32:31;5.07;;;3.87;;
20000;SDS011;10161;41.188;-8.642;2023-05-21T01:35:01;3.90;;;3.50;;
20000;SDS011;10161;41.188;-8.642;2023-05-21T01:37:31;6.13;;;3.97;;
20000;SDS011;10161;41.188;-8.642;2023-05-21T01:40:04;5.20;;;4.10;;
20000;SDS011;10161;41.188;-8.642;2023-05-21T01:42:34;4.40;;;4.00;;
20000;SDS011;10161;41.188;-8.642;2023-05-21T01:45:02;4.13;;;3.73;;
20000;SDS011;10161;41.188;-8.642;2023-05-21T01:47:32;4.20;;;3.20;;
20000;SDS011;10161;41.188;-8.642;2023-05-21T01:50:05;3.23;;;2.93;;
20000;SDS011;10161;41.188;-8.642;2023-05-21T01:52:35;4.50;;;4.10;;
20000;SDS011;10161;41.188;-8.642;2023-05-21T01:55:02;3.77;;;3.30;;
20000;SDS011;10161;41.188;-8.642;2023-05-21T01:57:31;3.73;;;3.30;;
20000;SDS011;10161;41.188;-8.642;2023-05-21T01:59:58;3.87;;;3.10;;
20000;SDS011;10161;41.188;-8.642;2023-05-21T02:02:26;4.40;;;3.53;;
20000;SDS011;10161;41.188;-8.642;2023-05-21T02:04:54;5.67;;;3.57;;
20000;SDS011;10161;41.188;-8.642;2023-05-21T02:07:21;6.13;;;3.33;;
20000;SDS011;10161;41.188;-8.642;2023-05-21T02:09:50;3.67;;;2.80;;
20000;SDS011;10161;41.188;-8.642;2023-05-21T02:12:17;4.27;;;3.37;;
20000;SDS011;10161;41.188;-8.642;2023-05-21T02:14:45;4.63;;;3.57;;
20000;SDS011;10161;41.188;-8.642;2023-05-21T02:17:14;3.53;;;3.23;;
20000;SDS011;10161;41.188;-8.642;2023-05-21T02:19:42;3.83;;;3.07;;
20000;SDS011;10161;41.188;-8.642;2023-05-21T02:22:09;6.83;;;3.97;;
20000;SDS011;10161;41.188;-8.642;2023-05-21T02:24:36;3.57;;;2.73;;
20000;SDS011;10161;41.188;-8.642;2023-05-21T02:27:04;4.73;;;3.30;;
20000;SDS011;10161;41.188;-8.642;2023-05-21T02:29:33;4.80;;;3.17;;
20000;SDS011;10161;41.188;-8.642;2023-05-21T02:32:01;3.20;;;2.83;;
20000;SDS011;10161;41.188;-8.642;2023-05-21T02:34:28;3.90;;;3.00;;
20000;SDS011;10161;41.188;-8.642;2023-05-21T02:36:57;5.07;;;3.30;;
20000;SDS011;10161;41.188;-8.642;2023-05-21T02:39:25;2.93;;;2.63;;
20000;SDS011;10161;41.188;-8.642;2023-05-21T02:41:52;7.50;;;3.73;;
20000;SDS011;10161;41.188;-8.642;2023-05-21T02:44:20;3.67;;;3.10;;
20000;SDS011;10161;41.188;-8.642;2023-05-21T02:46:48;4.63;;;2.80;;
20000;SDS011;10161;41.188;-8.642;2023-05-21T02:49:16;3.50;;;2.67;;
20000;SDS011;10161;41.188;-8.642;2023-05-21T02:51:43;4.67;;;3.13;;
20000;SDS011;10161;41.188;-8.642;2023-05-21T02:54:10;4.43;;;3.00;;
20000;SDS011;10161;41.188;-8.642;2023-05-21T02:56:38;5.97;;;3.43;;
20000;SDS011;10161;41.188;-8.642;2023-05-21T02:59:05;6.43;;;2.80;;
20000;SDS011;10161;41.188;-8.642;2023-05-21T03:01:32;4.20;;;2.80;;
20000;SDS011;10161;41.188;-8.642;2023-05-21T03:03:59;4.83;;;2.80;;
20000;SDS011;10161;41.188;-8.642;2023-05-21T03:06:29;3.10;;;2.50;;
20000;SDS011;10161;41.188;-8.642;2023-05-21T03:08:58;5.53;;;2.87;;
20000;SDS011;10161;41.188;-8.642;2023-05-21T03:11:27;3.10;;;2.67;;
20000;SDS011;10161;41.188;-8.642;2023-05-21T03:13:55;3.40;;;2.50;;
20000;SDS011;10161;41.188;-8.642;2023-05-21T03:16:22;5.37;;;2.83;;
20000;SDS011;10161;41.188;-8.642;2023-05-21T03:18:50;3.40;;;2.67;;
20000;SDS011;10161;41.188;-8.642;2023-05-21T03:21:17;3.50;;;2.50;;
20000;SDS011;10161;41.188;-8.642;2023-05-21T03:23:48;3.17;;;2.70;;
20000;SDS011;10161;41.188;-8.642;2023-05-21T03:26:16;3.07;;;2.60;;
20000;SDS011;10161;41.188;-8.642;2023-05-21T03:28:43;2.40;;;2.20;;
20000;SDS011;10161;41.188;-8.642;2023-05-21T03:31:11;3.90;;;2.50;;
20000;SDS011;10161;41.188;-8.642;2023-05-21T03:33:38;3.20;;;2.30;;
20000;SDS011;10161;41.188;-8.642;2023-05-21T03:36:05;4.73;;;2.77;;
20000;SDS011;10161;41.188;-8.642;2023-05-21T03:38:33;5.20;;;2.50;;
20000;SDS011;10161;41.188;-8.642;2023-05-21T03:41:01;7.87;;;3.30;;
20000;SDS011;10161;41.188;-8.642;2023-05-21T03:43:28;3.33;;;2.23;;
20000;SDS011;10161;41.188;-8.642;2023-05-21T03:45:55;2.80;;;2.30;;
20000;SDS011;10161;41.188;-8.642;2023-05-21T03:48:22;5.93;;;2.67;;
20000;SDS011;10161;41.188;-8.642;2023-05-21T03:50:50;3.30;;;2.80;;
20000;SDS011;10161;41.188;-8.642;2023-05-21T03:53:17;3.57;;;2.93;;
20000;SDS011;10161;41.188;-8.642;2023-05-21T03:55:44;2.70;;;2.33;;
20000;SDS011;10161;41.188;-8.642;2023-05-21T03:58:13;3.83;;;2.40;;
20000;SDS011;10161;41.188;-8.642;2023-05-21T04:00:40;3.27;;;2.40;;
20000;SDS011;10161;41.188;-8.642;2023-05-21T04:03:07;3.63;;;2.60;;
20000;SDS011;10161;41.188;-8.642;2023-05-21T04:05:35;3.60;;;2.77;;
20000;SDS011;10161;41.188;-8.642;2023-05-21T04:08:02;4.60;;;2.50;;
20000;SDS011;10161;41.188;-8.642;2023-05-21T04:10:29;2.60;;;2.40;;
20000;SDS011;10161;41.188;-8.642;2023-05-21T04:12:58;3.50;;;2.80;;
20000;SDS011;10161;41.188;-8.642;2023-05-21T04:15:26;4.23;;;2.20;;
20000;SDS011;10161;41.188;-8.642;2023-05-21T04:17:55;3.20;;;2.70;;
20000;SDS011;10161;41.188;-8.642;2023-05-21T04:20:23;3.60;;;2.60;;
20000;SDS011;10161;41.188;-8.642;2023-05-21T04:22:51;6.37;;;2.77;;
20000;SDS011;10161;41.188;-8.642;2023-05-21T04:25:18;5.90;;;2.83;;
20000;SDS011;10161;41.188;-8.642;2023-05-21T04:27:46;2.70;;;2.40;;
20000;SDS011;10161;41.188;-8.642;2023-05-21T04:30:14;2.50;;;2.30;;
20000;SDS011;10161;41.188;-8.642;2023-05-21T04:32:42;3.70;;;2.90;;
20000;SDS011;10161;41.188;-8.642;2023-05-21T04:35:12;3.90;;;2.77;;
20000;SDS011;10161;41.188;-8.642;2023-05-21T04:37:40;2.97;;;2.67;;
20000;SDS011;10161;41.188;-8.642;2023-05-21T04:40:10;3.43;;;2.50;;
20000;SDS011;10161;41.188;-8.642;2023-05-21T04:42:42;3.00;;;2.63;;
20000;SDS011;10161;41.188;-8.642;2023-05-21T04:45:11;4.97;;;2.53;;
20000;SDS011;10161;41.188;-8.642;2023-05-21T04:47:41;3.43;;;2.70;;
20000;SDS011;10161;41.188;-8.642;2023-05-21T04:50:11;2.60;;;2.40;;
20000;SDS011;10161;41.188;-8.642;2023-05-21T04:52:38;3.07;;;2.40;;
20000;SDS011;10161;41.188;-8.642;2023-05-21T04:55:05;3.83;;;2.70;;
20000;SDS011;10161;41.188;-8.642;2023-05-21T04:57:33;3.63;;;2.43;;
20000;SDS011;10161;41.188;-8.642;2023-05-21T05:00:01;3.37;;;3.00;;
20000;SDS011;10161;41.188;-8.642;2023-05-21T05:02:31;6.70;;;3.10;;
20000;SDS011;10161;41.188;-8.642;2023-05-21T05:05:00;4.90;;;3.10;;
20000;SDS011;10161;41.188;-8.642;2023-05-21T05:07:28;4.33;;;2.60;;
20000;SDS011;10161;41.188;-8.642;2023-05-21T05:09:56;5.33;;;3.23;;
20000;SDS011;10161;41.188;-8.642;2023-05-21T05:12:23;2.70;;;2.50;;
20000;SDS011;10161;41.188;-8.642;2023-05-21T05:14:50;3.50;;;2.50;;
20000;SDS011;10161;41.188;-8.642;2023-05-21T05:17:17;3.57;;;2.80;;
20000;SDS011;10161;41.188;-8.642;2023-05-21T05:19:44;3.20;;;2.90;;
20000;SDS011;10161;41.188;-8.642;2023-05-21T05:22:13;4.00;;;2.97;;
20000;SDS011;10161;41.188;-8.642;2023-05-21T05:24:40;5.40;;;2.80;;
20000;SDS011;10161;41.188;-8.642;2023-05-21T05:27:07;5.67;;;2.90;;
20000;SDS011;10161;41.188;-8.642;2023-05-21T05:29:35;5.00;;;3.10;;
20000;SDS011;10161;41.188;-8.642;2023-05-21T05:32:02;5.10;;;3.10;;
20000;SDS011;10161;41.188;-8.642;2023-05-21T05:34:30;5.70;;;3.23;;
20000;SDS011;10161;41.188;-8.642;2023-05-21T05:36:57;6.90;;;3.13;;
20000;SDS011;10161;41.188;-8.642;2023-05-21T05:39:26;4.60;;;3.07;;
20000;SDS011;10161;41.188;-8.642;2023-05-21T05:41:54;4.10;;;2.57;;
20000;SDS011;10161;41.188;-8.642;2023-05-21T05:44:21;3.20;;;2.70;;
20000;SDS011;10161;41.188;-8.642;2023-05-21T05:46:48;4.23;;;3.10;;
20000;SDS011;10161;41.188;-8.642;2023-05-21T05:49:16;5.27;;;3.20;;
20000;SDS011;10161;41.188;-8.642;2023-05-21T05:51:44;3.50;;;2.60;;
20000;SDS011;10161;41.188;-8.642;2023-05-21T05:54:11;3.93;;;2.80;;
20000;SDS011;10161;41.188;-8.642;2023-05-21T05:56:40;3.17;;;2.73;;
20000;SDS011;10161;41.188;-8.642;2023-05-21T05:59:07;6.30;;;3.27;;
20000;SDS011;10161;41.188;-8.642;2023-05-21T06:01:34;3.53;;;3.23;;
20000;SDS011;10161;41.188;-8.642;2023-05-21T06:04:01;6.10;;;2.80;;
20000;SDS011;10161;41.188;-8.642;2023-05-21T06:06:28;3.13;;;2.70;;
20000;SDS011;10161;41.188;-8.642;2023-05-21T06:08:56;3.70;;;2.97;;
20000;SDS011;10161;41.188;-8.642;2023-05-21T06:11:23;4.27;;;2.63;;
20000;SDS011;10161;41.188;-8.642;2023-05-21T06:13:52;3.20;;;2.90;;
20000;SDS011;10161;41.188;-8.642;2023-05-21T06:16:18;5.33;;;2.80;;
20000;SDS011;10161;41.188;-8.642;2023-05-21T06:18:45;2.97;;;2.67;;
20000;SDS011;10161;41.188;-8.642;2023-05-21T06:21:13;4.67;;;2.53;;
20000;SDS011;10161;41.188;-8.642;2023-05-21T06:23:41;2.67;;;2.47;;
20000;SDS011;10161;41.188;-8.642;2023-05-21T06:26:08;4.90;;;2.83;;
20000;SDS011;10161;41.188;-8.642;2023-05-21T06:28:36;4.50;;;3.07;;
20000;SDS011;10161;41.188;-8.642;2023-05-21T06:31:04;5.53;;;2.90;;
20000;SDS011;10161;41.188;-8.642;2023-05-21T06:33:32;4.50;;;3.07;;
20000;SDS011;10161;41.188;-8.642;2023-05-21T06:35:58;2.63;;;2.40;;
20000;SDS011;10161;41.188;-8.642;2023-05-21T06:38:25;6.03;;;3.63;;
20000;SDS011;10161;41.188;-8.642;2023-05-21T06:40:52;4.30;;;2.80;;
20000;SDS011;10161;41.188;-8.642;2023-05-21T06:43:19;5.43;;;3.27;;
20000;SDS011;10161;41.188;-8.642;2023-05-21T06:45:46;5.13;;;2.70;;
20000;SDS011;10161;41.188;-8.642;2023-05-21T06:48:16;7.00;;;2.90;;
20000;SDS011;10161;41.188;-8.642;2023-05-21T06:50:43;5.00;;;2.87;;
20000;SDS011;10161;41.188;-8.642;2023-05-21T06:53:10;3.73;;;3.03;;
20000;SDS011;10161;41.188;-8.642;2023-05-21T06:55:40;4.53;;;2.60;;
20000;SDS011;10161;41.188;-8.642;2023-05-21T06:58:10;2.77;;;2.57;;
20000;SDS011;10161;41.188;-8.642;2023-05-21T07:00:38;3.13;;;2.83;;
20000;SDS011;10161;41.188;-8.642;2023-05-21T07:03:05;6.13;;;3.10;;
20000;SDS011;10161;41.188;-8.642;2023-05-21T07:05:33;3.83;;;2.50;;
20000;SDS011;10161;41.188;-8.642;2023-05-21T07:08:00;4.13;;;2.60;;
20000;SDS011;10161;41.188;-8.642;2023-05-21T07:10:29;6.17;;;2.67;;
20000;SDS011;10161;41.188;-8.642;2023-05-21T07:12:56;2.97;;;2.67;;
20000;SDS011;10161;41.188;-8.642;2023-05-21T07:15:23;3.70;;;2.87;;
20000;SDS011;10161;41.188;-8.642;2023-05-21T07:17:50;3.33;;;2.70;;
20000;SDS011;10161;41.188;-8.642;2023-05-21T07:20:17;3.30;;;3.00;;
20000;SDS011;10161;41.188;-8.642;2023-05-21T07:22:45;4.10;;;2.70;;
20000;SDS011;10161;41.188;-8.642;2023-05-21T07:25:12;5.03;;;3.00;;
20000;SDS011;10161;41.188;-8.642;2023-05-21T07:27:40;4.17;;;3.00;;
20000;SDS011;10161;41.188;-8.642;2023-05-21T07:30:07;3.83;;;3.00;;
20000;SDS011;10161;41.188;-8.642;2023-05-21T07:32:36;3.73;;;2.77;;
20000;SDS011;10161;41.188;-8.642;2023-05-21T07:35:03;6.17;;;2.83;;
20000;SDS011;10161;41.188;-8.642;2023-05-21T07:37:31;3.60;;;2.50;;
20000;SDS011;10161;41.188;-8.642;2023-05-21T07:40:00;4.50;;;3.20;;
20000;SDS011;10161;41.188;-8.642;2023-05-21T07:42:27;2.63;;;2.43;;
20000;SDS011;10161;41.188;-8.642;2023-05-21T07:44:54;5.23;;;3.37;;
20000;SDS011;10161;41.188;-8.642;2023-05-21T07:47:21;5.93;;;3.73;;
20000;SDS011;10161;41.188;-8.642;2023-05-21T07:49:48;3.27;;;3.00;;
20000;SDS011;10161;41.188;-8.642;2023-05-21T07:52:16;5.90;;;3.50;;
20000;SDS011;10161;41.188;-8.642;2023-05-21T07:54:43;10.93;;;3.13;;
20000;SDS011;10161;41.188;-8.642;2023-05-21T07:57:11;4.00;;;3.10;;
20000;SDS011;10161;41.188;-8.642;2023-05-21T07:59:38;5.23;;;3.10;;
20000;SDS011;10161;41.188;-8.642;2023-05-21T08:02:05;5.83;;;3.10;;
20000;SDS011;10161;41.188;-8.642;2023-05-21T08:04:33;5.20;;;3.50;;
20000;SDS011;10161;41.188;-8.642;2023-05-21T08:07:00;5.57;;;3.47;;
20000;SDS011;10161;41.188;-8.642;2023-05-21T08:09:27;4.23;;;3.20;;
20000;SDS011;10161;41.188;-8.642;2023-05-21T08:11:54;4.50;;;3.43;;
20000;SDS011;10161;41.188;-8.642;2023-05-21T08:14:22;4.07;;;2.80;;
20000;SDS011;10161;41.188;-8.642;2023-05-21T08:16:50;3.27;;;2.90;;
20000;SDS011;10161;41.188;-8.642;2023-05-21T08:19:17;4.33;;;2.73;;
20000;SDS011;10161;41.188;-8.642;2023-05-21T08:21:44;4.43;;;3.27;;
20000;SDS011;10161;41.188;-8.642;2023-05-21T08:24:12;3.10;;;2.57;;
20000;SDS011;10161;41.188;-8.642;2023-05-21T08:26:39;4.57;;;3.20;;
20000;SDS011;10161;41.188;-8.642;2023-05-21T08:29:06;4.83;;;3.00;;
20000;SDS011;10161;41.188;-8.642;2023-05-21T08:31:36;4.17;;;3.10;;
20000;SDS011;10161;41.188;-8.642;2023-05-21T08:34:04;6.40;;;3.50;;
20000;SDS011;10161;41.188;-8.642;2023-05-21T08:36:32;4.13;;;3.33;;
20000;SDS011;10161;41.188;-8.642;2023-05-21T08:39:00;4.07;;;3.07;;
20000;SDS011;10161;41.188;-8.642;2023-05-21T08:41:27;4.30;;;3.10;;
20000;SDS011;10161;41.188;-8.642;2023-05-21T08:43:56;6.20;;;3.40;;
20000;SDS011;10161;41.188;-8.642;2023-05-21T08:46:27;3.60;;;3.10;;
20000;SDS011;10161;41.188;-8.642;2023-05-21T08:48:59;5.03;;;3.87;;
20000;SDS011;10161;41.188;-8.642;2023-05-21T08:51:27;5.00;;;3.53;;
20000;SDS011;10161;41.188;-8.642;2023-05-21T08:53:55;3.80;;;3.30;;
20000;SDS011;10161;41.188;-8.642;2023-05-21T08:56:23;4.73;;;3.70;;
20000;SDS011;10161;41.188;-8.642;2023-05-21T08:58:51;3.50;;;2.90;;
20000;SDS011;10161;41.188;-8.642;2023-05-21T09:01:18;4.90;;;3.33;;
20000;SDS011;10161;41.188;-8.642;2023-05-21T09:03:46;3.33;;;3.00;;
20000;SDS011;10161;41.188;-8.642;2023-05-21T09:06:15;5.90;;;3.00;;
20000;SDS011;10161;41.188;-8.642;2023-05-21T09:08:42;6.33;;;3.57;;
20000;SDS011;10161;41.188;-8.642;2023-05-21T09:11:12;5.20;;;3.73;;
20000;SDS011;10161;41.188;-8.642;2023-05-21T09:13:39;4.40;;;3.00;;
20000;SDS011;10161;41.188;-8.642;2023-05-21T09:16:08;4.90;;;3.63;;
20000;SDS011;10161;41.188;-8.642;2023-05-21T09:18:35;4.03;;;3.40;;
20000;SDS011;10161;41.188;-8.642;2023-05-21T09:23:54;3.67;;;3.20;;
20000;SDS011;10161;41.188;-8.642;2023-05-21T09:26:22;3.80;;;3.37;;
20000;SDS011;10161;41.188;-8.642;2023-05-21T09:28:51;4.23;;;2.73;;
20000;SDS011;10161;41.188;-8.642;2023-05-21T09:31:19;3.87;;;3.50;;
20000;SDS011;10161;41.188;-8.642;2023-05-21T09:33:48;4.67;;;3.23;;
20000;SDS011;10161;41.188;-8.642;2023-05-21T09:36:16;4.03;;;3.27;;
20000;SDS011;10161;41.188;-8.642;2023-05-21T09:38:48;3.67;;;2.80;;
20000;SDS011;10161;41.188;-8.642;2023-05-21T09:41:17;3.57;;;2.60;;
20000;SDS011;10161;41.188;-8.642;2023-05-21T09:43:47;3.50;;;3.20;;
20000;SDS011;10161;41.188;-8.642;2023-05-21T09:46:14;4.83;;;3.50;;
20000;SDS011;10161;41.188;-8.642;2023-05-21T09:48:52;4.03;;;3.63;;
20000;SDS011;10161;41.188;-8.642;2023-05-21T09:51:19;4.80;;;3.37;;
20000;SDS011;10161;41.188;-8.642;2023-05-21T09:53:53;3.30;;;3.00;;
20000;SDS011;10161;41.188;-8.642;2023-05-21T09:56:22;4.00;;;3.07;;
20000;SDS011;10161;41.188;-8.642;2023-05-21T09:58:52;3.73;;;3.20;;
20000;SDS011;10161;41.188;-8.642;2023-05-21T10:01:22;4.03;;;3.17;;
20000;SDS011;10161;41.188;-8.642;2023-05-21T10:03:52;3.47;;;3.17;;
20000;SDS011;10161;41.188;-8.642;2023-05-21T10:06:23;3.90;;;3.23;;
20000;SDS011;10161;41.188;-8.642;2023-05-21T10:08:54;4.40;;;3.20;;
20000;SDS011;10161;41.188;-8.642;2023-05-21T10:11:22;4.30;;;3.50;;
20000;SDS011;10161;41.188;-8.642;2023-05-21T10:13:53;4.17;;;3.07;;
20000;SDS011;10161;41.188;-8.642;2023-05-21T10:16:21;4.70;;;3.47;;
20000;SDS011;10161;41.188;-8.642;2023-05-21T10:18:48;4.17;;;3.40;;
20000;SDS011;10161;41.188;-8.642;2023-05-21T10:21:18;4.87;;;3.50;;
20000;SDS011;10161;41.188;-8.642;2023-05-21T10:23:46;5.27;;;3.40;;
20000;SDS011;10161;41.188;-8.642;2023-05-21T10:26:17;6.10;;;3.60;;
20000;SDS011;10161;41.188;-8.642;2023-05-21T10:28:44;5.60;;;3.37;;
20000;SDS011;10161;41.188;-8.642;2023-05-21T10:31:11;3.47;;;3.10;;
20000;SDS011;10161;41.188;-8.642;2023-05-21T10:33:39;3.67;;;3.00;;
20000;SDS011;10161;41.188;-8.642;2023-05-21T10:36:07;3.67;;;3.30;;
20000;SDS011;10161;41.188;-8.642;2023-05-21T10:38:34;5.00;;;3.47;;
20000;SDS011;10161;41.188;-8.642;2023-05-21T10:41:02;3.30;;;2.90;;
20000;SDS011;10161;41.188;-8.642;2023-05-21T10:43:36;4.20;;;3.40;;
20000;SDS011;10161;41.188;-8.642;2023-05-21T10:46:14;6.23;;;3.27;;
20000;SDS011;10161;41.188;-8.642;2023-05-21T10:48:55;4.87;;;3.50;;
20000;SDS011;10161;41.188;-8.642;2023-05-21T10:51:26;5.87;;;3.33;;
20000;SDS011;10161;41.188;-8.642;2023-05-21T10:54:07;4.33;;;2.97;;
20000;SDS011;10161;41.188;-8.642;2023-05-21T10:56:53;5.00;;;4.00;;
20000;SDS011;10161;41.188;-8.642;2023-05-21T10:59:32;4.50;;;3.60;;
20000;SDS011;10161;41.188;-8.642;2023-05-21T11:02:03;5.40;;;3.63;;
20000;SDS011;10161;41.188;-8.642;2023-05-21T11:04:31;4.70;;;3.40;;
20000;SDS011;10161;41.188;-8.642;2023-05-21T11:06:59;3.90;;;3.50;;
20000;SDS011;10161;41.188;-8.642;2023-05-21T11:09:26;3.90;;;3.60;;
20000;SDS011;10161;41.188;-8.642;2023-05-21T11:11:56;5.53;;;3.37;;
20000;SDS011;10161;41.188;-8.642;2023-05-21T11:14:36;5.57;;;3.47;;
20000;SDS011;10161;41.188;-8.642;2023-05-21T11:17:09;3.90;;;3.50;;
20000;SDS011;10161;41.188;-8.642;2023-05-21T11:19:38;4.30;;;3.03;;
20000;SDS011;10161;41.188;-8.642;2023-05-21T11:22:07;5.00;;;3.40;;
20000;SDS011;10161;41.188;-8.642;2023-05-21T11:24:39;3.70;;;3.30;;
20000;SDS011;10161;41.188;-8.642;2023-05-21T11:27:06;3.60;;;3.23;;
20000;SDS011;10161;41.188;-8.642;2023-05-21T11:29:39;4.13;;;3.57;;
20000;SDS011;10161;41.188;-8.642;2023-05-21T11:32:10;3.50;;;3.20;;
20000;SDS011;10161;41.188;-8.642;2023-05-21T11:34:40;7.30;;;3.77;;
20000;SDS011;10161;41.188;-8.642;2023-05-21T11:37:25;5.63;;;3.40;;
20000;SDS011;10161;41.188;-8.642;2023-05-21T11:39:56;4.83;;;3.77;;
20000;SDS011;10161;41.188;-8.642;2023-05-21T11:42:28;4.80;;;3.33;;
20000;SDS011;10161;41.188;-8.642;2023-05-21T11:44:59;4.40;;;3.70;;
20000;SDS011;10161;41.188;-8.642;2023-05-21T11:47:26;3.60;;;3.30;;
20000;SDS011;10161;41.188;-8.642;2023-05-21T11:49:54;4.53;;;3.67;;
20000;SDS011;10161;41.188;-8.642;2023-05-21T11:52:22;4.97;;;3.30;;
20000;SDS011;10161;41.188;-8.642;2023-05-21T11:54:50;3.40;;;3.10;;
20000;SDS011;10161;41.188;-8.642;2023-05-21T11:57:19;5.83;;;3.70;;
20000;SDS011;10161;41.188;-8.642;2023-05-21T11:59:47;3.87;;;3.13;;
20000;SDS011;10161;41.188;-8.642;2023-05-21T12:02:17;4.23;;;3.47;;
20000;SDS011;10161;41.188;-8.642;2023-05-21T12:04:45;4.70;;;3.70;;
20000;SDS011;10161;41.188;-8.642;2023-05-21T12:07:14;4.10;;;3.50;;
20000;SDS011;10161;41.188;-8.642;2023-05-21T12:09:42;4.10;;;3.70;;
20000;SDS011;10161;41.188;-8.642;2023-05-21T12:12:10;4.73;;;3.70;;
20000;SDS011;10161;41.188;-8.642;2023-05-21T12:14:41;3.90;;;3.40;;
20000;SDS011;10161;41.188;-8.642;2023-05-21T12:17:10;5.03;;;3.70;;
20000;SDS011;10161;41.188;-8.642;2023-05-21T12:19:40;4.43;;;3.30;;
20000;SDS011;10161;41.188;-8.642;2023-05-21T12:22:09;4.40;;;3.83;;
20000;SDS011;10161;41.188;-8.642;2023-05-21T12:24:37;4.53;;;3.50;;
20000;SDS011;10161;41.188;-8.642;2023-05-21T12:27:04;4.87;;;3.53;;
20000;SDS011;10161;41.188;-8.642;2023-05-21T12:29:34;5.53;;;3.70;;
20000;SDS011;10161;41.188;-8.642;2023-05-21T12:32:02;4.10;;;3.70;;
20000;SDS011;10161;41.188;-8.642;2023-05-21T12:34:37;3.80;;;3.40;;
20000;SDS011;10161;41.188;-8.642;2023-05-21T12:37:09;5.80;;;3.97;;
20000;SDS011;10161;41.188;-8.642;2023-05-21T12:39:37;5.60;;;4.10;;
20000;SDS011;10161;41.188;-8.642;2023-05-21T12:42:05;7.70;;;4.17;;
20000;SDS011;10161;41.188;-8.642;2023-05-21T12:44:32;6.70;;;4.47;;
20000;SDS011;10161;41.188;-8.642;2023-05-21T12:46:59;4.97;;;3.73;;
20000;SDS011;10161;41.188;-8.642;2023-05-21T12:49:29;7.10;;;4.27;;
20000;SDS011;10161;41.188;-8.642;2023-05-21T12:52:07;7.60;;;3.83;;
20000;SDS011;10161;41.188;-8.642;2023-05-21T12:54:36;7.60;;;4.50;;
20000;SDS011;10161;41.188;-8.642;2023-05-21T12:57:07;8.00;;;4.20;;
20000;SDS011;10161;41.188;-8.642;2023-05-21T12:59:44;6.10;;;3.90;;
20000;SDS011;10161;41.188;-8.642;2023-05-21T13:02:14;4.83;;;4.00;;
20000;SDS011;10161;41.188;-8.642;2023-05-21T13:04:43;6.83;;;4.07;;
20000;SDS011;10161;41.188;-8.642;2023-05-21T13:07:12;4.90;;;4.07;;
20000;SDS011;10161;41.188;-8.642;2023-05-21T13:09:40;9.27;;;4.30;;
20000;SDS011;10161;41.188;-8.642;2023-05-21T13:12:07;5.67;;;3.97;;
20000;SDS011;10161;41.188;-8.642;2023-05-21T13:14:34;7.93;;;4.20;;
20000;SDS011;10161;41.188;-8.642;2023-05-21T13:17:01;6.60;;;3.90;;
20000;SDS011;10161;41.188;-8.642;2023-05-21T13:19:28;5.47;;;3.63;;
20000;SDS011;10161;41.188;-8.642;2023-05-21T13:21:56;5.30;;;3.90;;
20000;SDS011;10161;41.188;-8.642;2023-05-21T13:24:25;5.53;;;3.73;;
20000;SDS011;10161;41.188;-8.642;2023-05-21T13:26:53;5.10;;;3.47;;
20000;SDS011;10161;41.188;-8.642;2023-05-21T13:29:21;5.50;;;3.67;;
20000;SDS011;10161;41.188;-8.642;2023-05-21T13:31:51;6.40;;;3.60;;
20000;SDS011;10161;41.188;-8.642;2023-05-21T13:34:18;9.13;;;4.20;;
20000;SDS011;10161;41.188;-8.642;2023-05-21T13:36:45;8.93;;;4.20;;
20000;SDS011;10161;41.188;-8.642;2023-05-21T13:39:14;6.70;;;4.20;;
20000;SDS011;10161;41.188;-8.642;2023-05-21T13:41:42;6.63;;;3.80;;
20000;SDS011;10161;41.188;-8.642;2023-05-21T13:44:09;5.60;;;4.40;;
20000;SDS011;10161;41.188;-8.642;2023-05-21T13:46:36;8.67;;;3.87;;
20000;SDS011;10161;41.188;-8.642;2023-05-21T13:49:03;4.73;;;3.40;;
20000;SDS011;10161;41.188;-8.642;2023-05-21T13:51:33;6.20;;;3.50;;
20000;SDS011;10161;41.188;-8.642;2023-05-21T13:54:00;3.87;;;2.83;;
20000;SDS011;10161;41.188;-8.642;2023-05-21T13:56:27;5.27;;;3.53;;
20000;SDS011;10161;41.188;-8.642;2023-05-21T13:58:59;5.57;;;3.43;;
20000;SDS011;10161;41.188;-8.642;2023-05-21T14:01:27;6.20;;;3.30;;
20000;SDS011;10161;41.188;-8.642;2023-05-21T14:03:55;5.10;;;3.83;;
20000;SDS011;10161;41.188;-8.642;2023-05-21T14:06:22;6.47;;;4.47;;
20000;SDS011;10161;41.188;-8.642;2023-05-21T14:08:49;5.13;;;3.63;;
20000;SDS011;10161;41.188;-8.642;2023-05-21T14:11:16;5.07;;;3.27;;
20000;SDS011;10161;41.188;-8.642;2023-05-21T14:13:45;6.40;;;3.67;;
20000;SDS011;10161;41.188;-8.642;2023-05-21T14:16:15;5.27;;;3.87;;
20000;SDS011;10161;41.188;-8.642;2023-05-21T14:18:42;6.27;;;3.63;;
20000;SDS011;10161;41.188;-8.642;2023-05-21T14:21:09;4.80;;;3.40;;
20000;SDS011;10161;41.188;-8.642;2023-05-21T14:23:37;3.73;;;3.17;;
20000;SDS011;10161;41.188;-8.642;2023-05-21T14:26:04;6.53;;;3.30;;
20000;SDS011;10161;41.188;-8.642;2023-05-21T14:28:33;6.20;;;3.40;;
20000;SDS011;10161;41.188;-8.642;2023-05-21T14:31:00;5.00;;;3.53;;
20000;SDS011;10161;41.188;-8.642;2023-05-21T14:33:29;4.90;;;3.50;;
20000;SDS011;10161;41.188;-8.642;2023-05-21T14:35:57;3.90;;;3.50;;
20000;SDS011;10161;41.188;-8.642;2023-05-21T14:38:24;9.50;;;4.37;;
20000;SDS011;10161;41.188;-8.642;2023-05-21T14:40:51;4.07;;;3.63;;
20000;SDS011;10161;41.188;-8.642;2023-05-21T14:43:18;8.90;;;3.53;;